Time;durP1;ratioP1;P1;durP2;ratioP2;P2;SDS_P1;SDS_P2;PMS_P1;PMS_P2;Temp;Humidity;BMP_temperature;BMP_pressure;BME280_temperature;BME280_humidity;BME280_pressure;Samples;Min_cycle;Max_cycle;Signal;HPM_P1;HPM_P2
2022/05/12 00:01:29;;;;;;;;;;;22.90;45.20;;;;;;465679;255;1227;-39
2022/05/12 00:03:30;;;;;;;;;;;22.90;45.20;;;;;;465590;255;1221;-39
2022/05/12 00:05:31;;;;;;;;;;;22.90;45.20;;;;;;465784;255;1343;-39
2022/05/12 00:07:33;;;;;;;;;;;23.00;45.20;;;;;;465539;256;1222;-39
2022/05/12 00:09:34;;;;;;;;;;;22.90;45.20;;;;;;465566;255;1363;-39
2022/05/12 00:11:36;;;;;;;;;;;22.90;45.20;;;;;;465604;254;1268;-39
2022/05/12 00:13:37;;;;;;;;;;;23.00;45.30;;;;;;465676;255;2198;-39
2022/05/12 00:15:38;;;;;;;;;;;22.90;45.30;;;;;;465620;255;1434;-39
2022/05/12 00:17:40;;;;;;;;;;;22.90;45.20;;;;;;465620;255;1527;-39
2022/05/12 00:19:41;;;;;;;;;;;23.00;45.20;;;;;;465821;254;1375;-39
2022/05/12 00:21:43;;;;;;;;;;;23.00;45.30;;;;;;465593;255;1337;-39
2022/05/12 00:23:56;;;;;;;;;;;23.00;45.20;;;;;;465549;256;2539;-39
2022/05/12 00:25:47;;;;;;;;;;;23.00;45.20;;;;;;465115;256;1414;-39
2022/05/12 00:27:47;;;;;;;;;;;23.00;45.20;;;;;;465310;256;2150;-39
2022/05/12 00:29:49;;;;;;;;;;;23.00;45.20;;;;;;465897;254;1331;-39
2022/05/12 00:31:50;;;;;;;;;;;23.00;45.20;;;;;;465835;255;1248;-39
2022/05/12 00:33:51;;;;;;;;;;;23.00;45.20;;;;;;465934;256;2213;-39
2022/05/12 00:35:53;;;;;;;;;;;22.90;45.30;;;;;;465417;256;1589;-39
2022/05/12 00:37:54;;;;;;;;;;;23.00;45.20;;;;;;465629;255;1314;-39
2022/05/12 00:39:55;;;;;;;;;;;23.00;45.20;;;;;;465771;254;1215;-39
2022/05/12 00:41:57;;;;;;;;;;;23.00;45.10;;;;;;465823;254;1180;-39
2022/05/12 00:43:59;;;;;;;;;;;23.00;45.20;;;;;;466131;254;1287;-39
2022/05/12 00:45:59;;;;;;;;;;;23.00;45.20;;;;;;465668;255;2464;-39
2022/05/12 00:48:01;;;;;;;;;;;22.90;45.20;;;;;;465776;255;1313;-39
2022/05/12 00:50:02;;;;;;;;;;;22.90;45.20;;;;;;465749;256;1415;-39
2022/05/12 00:52:06;;;;;;;;;;;23.00;45.20;;;;;;465501;255;1546;-39
2022/05/12 00:54:05;;;;;;;;;;;22.90;45.30;;;;;;465462;256;2319;-39
2022/05/12 00:56:06;;;;;;;;;;;22.90;45.30;;;;;;465682;255;1288;-39
2022/05/12 00:58:07;;;;;;;;;;;22.90;45.30;;;;;;464984;256;1307;-39
2022/05/12 01:00:09;;;;;;;;;;;22.90;45.20;;;;;;465681;255;1227;-39
2022/05/12 01:02:10;;;;;;;;;;;22.90;45.20;;;;;;465616;255;1602;-39
2022/05/12 01:04:12;;;;;;;;;;;23.00;45.20;;;;;;465862;255;1183;-39
2022/05/12 01:06:13;;;;;;;;;;;23.00;45.20;;;;;;465998;256;1260;-39
2022/05/12 01:08:14;;;;;;;;;;;23.00;45.10;;;;;;465650;255;1259;-39
2022/05/12 01:10:15;;;;;;;;;;;23.00;45.20;;;;;;465978;255;1238;-39
2022/05/12 01:12:17;;;;;;;;;;;23.00;45.20;;;;;;465796;255;1437;-39
2022/05/12 01:14:18;;;;;;;;;;;23.00;45.20;;;;;;465685;254;2134;-39
2022/05/12 01:16:19;;;;;;;;;;;23.00;45.10;;;;;;465640;255;1247;-39
2022/05/12 01:18:20;;;;;;;;;;;23.00;45.20;;;;;;465980;255;1178;-39
2022/05/12 01:20:23;;;;;;;;;;;23.00;45.20;;;;;;465919;255;1254;-39
2022/05/12 01:22:23;;;;;;;;;;;23.00;45.20;;;;;;465503;256;2252;-39
2022/05/12 01:24:24;;;;;;;;;;;22.90;45.30;;;;;;465791;256;1213;-39
2022/05/12 01:26:26;;;;;;;;;;;22.90;45.20;;;;;;465404;256;1327;-39
2022/05/12 01:28:27;;;;;;;;;;;23.00;45.20;;;;;;466071;255;1303;-39
2022/05/12 01:30:28;;;;;;;;;;;23.00;45.30;;;;;;465821;255;1286;-39
2022/05/12 01:32:30;;;;;;;;;;;23.00;45.30;;;;;;465672;255;1250;-39
2022/05/12 01:34:31;;;;;;;;;;;23.00;45.30;;;;;;465643;255;2143;-39
2022/05/12 01:36:32;;;;;;;;;;;23.00;45.20;;;;;;465651;255;1401;-39
2022/05/12 01:38:34;;;;;;;;;;;23.00;45.20;;;;;;465837;255;1279;-39
2022/05/12 01:40:35;;;;;;;;;;;22.90;45.20;;;;;;465613;255;1355;-39
2022/05/12 01:42:36;;;;;;;;;;;22.90;45.30;;;;;;465577;255;1758;-39
2022/05/12 01:44:38;;;;;;;;;;;22.90;45.30;;;;;;465690;256;1296;-39
2022/05/12 01:46:39;;;;;;;;;;;23.00;45.30;;;;;;465906;255;1510;-39
2022/05/12 01:48:40;;;;;;;;;;;23.00;45.30;;;;;;465708;255;1267;-39
2022/05/12 01:50:42;;;;;;;;;;;22.90;45.20;;;;;;465613;255;1274;-39
2022/05/12 01:52:44;;;;;;;;;;;23.00;45.30;;;;;;465478;256;2193;-39
2022/05/12 01:54:45;;;;;;;;;;;22.90;45.20;;;;;;465743;255;1303;-39
2022/05/12 01:56:47;;;;;;;;;;;22.90;45.30;;;;;;465602;254;1250;-39
2022/05/12 01:58:48;;;;;;;;;;;23.00;45.30;;;;;;465741;255;1336;-39
2022/05/12 02:00:49;;;;;;;;;;;23.00;45.20;;;;;;465732;256;1277;-39
2022/05/12 02:02:51;;;;;;;;;;;23.00;45.20;;;;;;465612;255;1221;-39
2022/05/12 02:04:52;;;;;;;;;;;22.90;45.30;;;;;;465987;255;1280;-39
2022/05/12 02:06:53;;;;;;;;;;;22.90;45.30;;;;;;465753;255;1272;-39
2022/05/12 02:08:55;;;;;;;;;;;22.90;45.40;;;;;;465695;255;1357;-39
2022/05/12 02:10:56;;;;;;;;;;;22.90;45.40;;;;;;465732;255;1175;-39
2022/05/12 02:12:57;;;;;;;;;;;22.90;45.30;;;;;;466126;255;2134;-39
2022/05/12 02:14:58;;;;;;;;;;;22.90;45.30;;;;;;465753;254;1235;-39
2022/05/12 02:17:00;;;;;;;;;;;23.00;45.40;;;;;;465882;255;1279;-39
2022/05/12 02:19:01;;;;;;;;;;;22.90;45.30;;;;;;465760;255;1136;-39
2022/05/12 02:21:02;;;;;;;;;;;23.00;45.30;;;;;;466077;254;1181;-39
2022/05/12 02:23:04;;;;;;;;;;;23.00;45.30;;;;;;466142;255;1280;-39
2022/05/12 02:25:05;;;;;;;;;;;22.90;45.20;;;;;;465849;255;1083;-39
2022/05/12 02:27:06;;;;;;;;;;;23.00;45.30;;;;;;465707;256;1205;-39
2022/05/12 02:29:08;;;;;;;;;;;22.90;45.30;;;;;;465774;255;1050;-39
2022/05/12 02:31:09;;;;;;;;;;;23.00;45.30;;;;;;465867;254;1201;-39
2022/05/12 02:33:10;;;;;;;;;;;22.90;45.30;;;;;;465740;256;2202;-39
2022/05/12 02:35:12;;;;;;;;;;;22.90;45.30;;;;;;465674;255;1303;-39
2022/05/12 02:37:13;;;;;;;;;;;22.90;45.30;;;;;;465684;254;1192;-39
2022/05/12 02:39:14;;;;;;;;;;;23.00;45.30;;;;;;466119;255;1103;-39
2022/05/12 02:41:16;;;;;;;;;;;22.90;45.30;;;;;;466110;254;1264;-39
2022/05/12 02:43:28;;;;;;;;;;;23.00;45.30;;;;;;465709;255;1207;-39
2022/05/12 02:45:27;;;;;;;;;;;23.00;45.20;;;;;;465580;256;2345;-39
2022/05/12 02:47:29;;;;;;;;;;;23.00;45.20;;;;;;465907;255;1345;-39
2022/05/12 02:49:30;;;;;;;;;;;22.90;45.30;;;;;;465066;256;1293;-39
2022/05/12 02:51:31;;;;;;;;;;;22.90;45.40;;;;;;465731;255;1399;-39
2022/05/12 02:53:33;;;;;;;;;;;22.90;45.40;;;;;;465681;255;2127;-39
2022/05/12 02:55:34;;;;;;;;;;;22.90;45.30;;;;;;465643;256;1336;-39
2022/05/12 02:57:35;;;;;;;;;;;22.90;45.40;;;;;;465804;255;1595;-39
2022/05/12 02:59:37;;;;;;;;;;;23.00;45.30;;;;;;465902;255;1276;-39
2022/05/12 03:01:38;;;;;;;;;;;23.00;45.30;;;;;;466170;254;2256;-39
2022/05/12 03:03:39;;;;;;;;;;;23.00;45.30;;;;;;465643;256;1731;-39
2022/05/12 03:05:41;;;;;;;;;;;23.00;45.30;;;;;;465723;255;1254;-39
2022/05/12 03:07:42;;;;;;;;;;;22.90;45.30;;;;;;465847;255;1221;-39
2022/05/12 03:09:43;;;;;;;;;;;22.90;45.40;;;;;;465913;255;1188;-39
2022/05/12 03:11:45;;;;;;;;;;;22.90;45.40;;;;;;465343;256;1224;-39
2022/05/12 03:13:46;;;;;;;;;;;22.90;45.40;;;;;;465841;255;2127;-39
2022/05/12 03:15:47;;;;;;;;;;;22.90;45.50;;;;;;465971;255;1281;-39
2022/05/12 03:17:49;;;;;;;;;;;22.90;45.40;;;;;;465416;256;1314;-39
2022/05/12 03:19:50;;;;;;;;;;;22.90;45.40;;;;;;465676;256;1181;-39
2022/05/12 03:21:51;;;;;;;;;;;22.90;45.30;;;;;;465751;255;1340;-39
2022/05/12 03:23:52;;;;;;;;;;;23.00;45.40;;;;;;465795;255;1350;-39
2022/05/12 03:25:54;;;;;;;;;;;23.00;45.30;;;;;;465896;255;1131;-39
2022/05/12 03:27:55;;;;;;;;;;;23.00;45.30;;;;;;465944;254;1299;-39
2022/05/12 03:29:56;;;;;;;;;;;23.00;45.40;;;;;;465871;255;1093;-39
2022/05/12 03:31:58;;;;;;;;;;;23.00;45.40;;;;;;465722;255;1331;-39
2022/05/12 03:34:00;;;;;;;;;;;22.90;45.40;;;;;;465765;256;2171;-39
2022/05/12 03:36:01;;;;;;;;;;;22.90;45.40;;;;;;465896;255;1316;-39
2022/05/12 03:38:02;;;;;;;;;;;22.90;45.40;;;;;;465705;255;1336;-39
2022/05/12 03:40:03;;;;;;;;;;;22.90;45.30;;;;;;465678;254;1194;-39
2022/05/12 03:42:06;;;;;;;;;;;23.00;45.30;;;;;;465756;255;1300;-39
2022/05/12 03:46:25;;;;;;;;;;;22.90;45.30;;;;;;465397;256;1337;-39
2022/05/12 03:48:26;;;;;;;;;;;22.90;45.30;;;;;;465725;254;1232;-39
2022/05/12 03:50:28;;;;;;;;;;;22.90;45.30;;;;;;465893;255;1196;-39
2022/05/12 03:52:29;;;;;;;;;;;22.90;45.30;;;;;;465602;255;1243;-39
2022/05/12 03:54:31;;;;;;;;;;;22.90;45.30;;;;;;466093;255;2150;-39
2022/05/12 03:56:32;;;;;;;;;;;22.90;45.40;;;;;;465514;256;1223;-39
2022/05/12 03:58:34;;;;;;;;;;;23.00;45.40;;;;;;465688;256;1299;-39
2022/05/12 04:00:35;;;;;;;;;;;23.00;45.30;;;;;;465819;255;1370;-39
2022/05/12 04:02:36;;;;;;;;;;;23.00;45.30;;;;;;465675;255;1180;-39
2022/05/12 04:04:37;;;;;;;;;;;23.00;45.30;;;;;;465682;255;1455;-39
2022/05/12 04:06:39;;;;;;;;;;;22.90;45.30;;;;;;465578;256;1250;-39
2022/05/12 04:08:40;;;;;;;;;;;22.90;45.30;;;;;;466000;254;1234;-39
2022/05/12 04:10:41;;;;;;;;;;;23.00;45.30;;;;;;465778;255;1336;-39
2022/05/12 04:12:43;;;;;;;;;;;22.90;45.40;;;;;;465709;255;1280;-39
2022/05/12 04:14:44;;;;;;;;;;;22.90;45.40;;;;;;465647;255;2147;-39
2022/05/12 04:16:45;;;;;;;;;;;23.00;45.30;;;;;;465860;255;1227;-39
2022/05/12 04:18:47;;;;;;;;;;;23.00;45.30;;;;;;465671;255;1214;-39
2022/05/12 04:20:48;;;;;;;;;;;22.90;45.30;;;;;;465709;254;1181;-39
2022/05/12 04:22:49;;;;;;;;;;;22.90;45.40;;;;;;465702;256;1067;-39
2022/05/12 04:24:51;;;;;;;;;;;22.90;45.40;;;;;;465712;256;1250;-39
2022/05/12 04:26:52;;;;;;;;;;;22.90;45.40;;;;;;465879;255;1330;-39
2022/05/12 04:28:53;;;;;;;;;;;23.00;45.40;;;;;;465610;256;1102;-39
2022/05/12 04:30:55;;;;;;;;;;;22.90;45.30;;;;;;465683;255;1249;-39
2022/05/12 04:35:09;;;;;;;;;;;23.00;45.50;;;;;;465657;255;1179;-39
2022/05/12 04:35:14;;;;;;;;;;;23.00;45.50;;;;;;464397;256;2135;-39
2022/05/12 04:37:14;;;;;;;;;;;22.90;45.50;;;;;;465619;255;2376;-39
2022/05/12 04:39:15;;;;;;;;;;;22.90;45.40;;;;;;465502;255;1281;-39
2022/05/12 04:41:17;;;;;;;;;;;22.90;45.40;;;;;;465132;256;1218;-39
2022/05/12 04:43:18;;;;;;;;;;;22.90;45.40;;;;;;465759;255;1142;-39
2022/05/12 04:45:19;;;;;;;;;;;22.90;45.40;;;;;;465423;255;1607;-39
2022/05/12 04:47:21;;;;;;;;;;;22.90;45.40;;;;;;464710;256;1284;-39
2022/05/12 04:49:23;;;;;;;;;;;22.90;45.40;;;;;;465453;255;1663;-39
2022/05/12 04:51:24;;;;;;;;;;;22.90;45.40;;;;;;465594;254;1177;-39
2022/05/12 04:53:25;;;;;;;;;;;22.90;45.40;;;;;;465619;255;1230;-39
2022/05/12 04:55:27;;;;;;;;;;;22.90;45.40;;;;;;465612;255;2122;-39
2022/05/12 04:57:28;;;;;;;;;;;22.90;45.40;;;;;;465438;255;1236;-39
2022/05/12 04:59:30;;;;;;;;;;;22.90;45.40;;;;;;465534;255;1282;-39
2022/05/12 05:01:31;;;;;;;;;;;22.90;45.40;;;;;;465376;255;1528;-39
2022/05/12 05:03:33;;;;;;;;;;;22.90;45.30;;;;;;465462;255;1233;-39
2022/05/12 05:05:34;;;;;;;;;;;23.00;45.40;;;;;;465604;255;1286;-39
2022/05/12 05:07:35;;;;;;;;;;;22.90;45.40;;;;;;465470;256;1177;-39
2022/05/12 05:09:36;;;;;;;;;;;22.90;45.40;;;;;;465645;255;1583;-39
2022/05/12 05:11:38;;;;;;;;;;;22.90;45.40;;;;;;465573;255;1290;-39
2022/05/12 05:13:39;;;;;;;;;;;22.90;45.40;;;;;;465783;255;1241;-39
2022/05/12 05:15:40;;;;;;;;;;;22.90;45.40;;;;;;465424;255;2119;-39
2022/05/12 05:17:42;;;;;;;;;;;22.90;45.40;;;;;;465516;255;1164;-39
2022/05/12 05:19:43;;;;;;;;;;;23.00;45.50;;;;;;465446;254;1435;-39
2022/05/12 05:21:44;;;;;;;;;;;23.00;45.50;;;;;;465621;255;1183;-39
2022/05/12 05:23:45;;;;;;;;;;;23.00;45.40;;;;;;465395;255;1237;-39
2022/05/12 05:25:47;;;;;;;;;;;23.00;45.40;;;;;;465364;255;1368;-39
2022/05/12 05:27:48;;;;;;;;;;;22.90;45.40;;;;;;465586;255;1232;-39
2022/05/12 05:29:51;;;;;;;;;;;23.00;45.50;;;;;;465370;256;1275;-39
2022/05/12 05:31:51;;;;;;;;;;;22.90;45.40;;;;;;465122;256;2206;-39
2022/05/12 05:33:52;;;;;;;;;;;22.90;45.40;;;;;;465493;255;1128;-39
2022/05/12 05:35:53;;;;;;;;;;;22.90;45.40;;;;;;465208;251;2205;-39
2022/05/12 05:37:55;;;;;;;;;;;22.90;45.40;;;;;;465330;255;1142;-39
2022/05/12 05:39:56;;;;;;;;;;;22.90;45.40;;;;;;465445;255;1089;-39
2022/05/12 05:41:57;;;;;;;;;;;22.90;45.50;;;;;;465254;255;1188;-39
2022/05/12 05:44:00;;;;;;;;;;;22.90;45.50;;;;;;465297;256;1152;-39
2022/05/12 05:46:00;;;;;;;;;;;22.90;45.50;;;;;;465345;255;1905;-39
2022/05/12 05:48:01;;;;;;;;;;;22.90;45.50;;;;;;465095;256;1058;-39
2022/05/12 05:50:03;;;;;;;;;;;22.90;45.40;;;;;;465029;256;1306;-39
2022/05/12 05:54:23;;;;;;;;;;;22.90;45.50;;;;;;465337;255;2131;-39
2022/05/12 05:56:24;;;;;;;;;;;22.90;45.40;;;;;;465236;255;1580;-39
2022/05/12 05:58:26;;;;;;;;;;;22.90;45.50;;;;;;465243;256;1303;-39
2022/05/12 06:00:28;;;;;;;;;;;22.90;45.50;;;;;;465356;256;1298;-39
2022/05/12 06:02:31;;;;;;;;;;;22.90;45.50;;;;;;465280;256;1207;-39
2022/05/12 06:04:30;;;;;;;;;;;22.90;45.40;;;;;;465155;256;2129;-39
2022/05/12 06:06:32;;;;;;;;;;;22.90;45.40;;;;;;465233;254;1265;-39
2022/05/12 06:08:33;;;;;;;;;;;22.90;45.40;;;;;;465281;255;1220;-39
2022/05/12 06:10:35;;;;;;;;;;;23.00;45.40;;;;;;465122;254;1278;-39
2022/05/12 06:12:37;;;;;;;;;;;22.90;45.40;;;;;;465252;255;1229;-39
2022/05/12 06:14:38;;;;;;;;;;;22.90;45.50;;;;;;465102;256;2198;-39
2022/05/12 06:16:39;;;;;;;;;;;22.90;45.40;;;;;;465073;254;1329;-39
2022/05/12 06:18:41;;;;;;;;;;;22.90;45.40;;;;;;464639;256;1215;-39
2022/05/12 06:20:42;;;;;;;;;;;22.90;45.40;;;;;;465057;255;2293;-39
2022/05/12 06:22:43;;;;;;;;;;;22.90;45.40;;;;;;465308;255;1250;-39
2022/05/12 06:24:44;;;;;;;;;;;22.90;45.40;;;;;;465270;255;1176;-39
2022/05/12 06:26:46;;;;;;;;;;;22.90;45.50;;;;;;465365;255;1422;-39
2022/05/12 06:28:47;;;;;;;;;;;22.90;45.50;;;;;;465684;255;1313;-39
2022/05/12 06:30:48;;;;;;;;;;;22.90;45.50;;;;;;465176;255;1288;-39
2022/05/12 06:32:51;;;;;;;;;;;22.90;45.50;;;;;;465347;255;1273;-39
2022/05/12 06:34:51;;;;;;;;;;;22.90;45.40;;;;;;465042;256;2201;-39
2022/05/12 06:36:56;;;;;;;;;;;22.90;45.50;;;;;;465198;255;1399;-39
2022/05/12 06:38:54;;;;;;;;;;;22.90;45.50;;;;;;465008;256;2098;-39
2022/05/12 06:40:56;;;;;;;;;;;22.90;45.50;;;;;;464717;256;1266;-39
2022/05/12 06:42:58;;;;;;;;;;;22.80;45.50;;;;;;465192;255;1283;-39
2022/05/12 06:44:58;;;;;;;;;;;22.80;45.60;;;;;;465030;255;1704;-39
2022/05/12 06:47:01;;;;;;;;;;;22.80;45.60;;;;;;464967;256;1280;-39
2022/05/12 06:49:03;;;;;;;;;;;22.80;45.60;;;;;;464922;256;2335;-39
2022/05/12 06:51:03;;;;;;;;;;;22.80;45.70;;;;;;464900;256;2053;-39
2022/05/12 06:53:05;;;;;;;;;;;22.80;45.80;;;;;;464895;256;1787;-39
2022/05/12 06:55:06;;;;;;;;;;;22.80;45.70;;;;;;464985;255;2205;-39
2022/05/12 06:57:07;;;;;;;;;;;22.70;45.70;;;;;;464926;254;1223;-39
2022/05/12 06:59:08;;;;;;;;;;;22.80;45.80;;;;;;465034;254;1223;-39
2022/05/12 07:01:10;;;;;;;;;;;22.80;45.70;;;;;;465025;255;1422;-39
2022/05/12 07:03:12;;;;;;;;;;;22.80;45.60;;;;;;465692;255;1089;-39
2022/05/12 07:05:13;;;;;;;;;;;22.80;45.50;;;;;;464739;256;1929;-39
2022/05/12 07:07:14;;;;;;;;;;;22.80;45.60;;;;;;465183;255;1220;-39
2022/05/12 07:09:18;;;;;;;;;;;22.80;45.60;;;;;;464817;256;1243;-39
2022/05/12 07:11:16;;;;;;;;;;;22.80;45.60;;;;;;464498;256;1263;-39
2022/05/12 07:13:20;;;;;;;;;;;22.80;45.60;;;;;;465681;254;1059;-39
2022/05/12 07:15:25;;;;;;;;;;;22.80;45.60;;;;;;465453;256;2213;-39
2022/05/12 07:17:22;;;;;;;;;;;22.80;45.60;;;;;;464820;256;2332;-39
2022/05/12 07:19:24;;;;;;;;;;;22.80;45.60;;;;;;465199;255;1194;-39
2022/05/12 07:28:22;;;;;;;;;;;22.70;45.60;;;;;;464931;256;1260;-39
2022/05/12 07:31:00;;;;;;;;;;;22.80;45.60;;;;;;464710;255;1290;-39
2022/05/12 07:32:25;;;;;;;;;;;22.70;45.60;;;;;;463721;256;1897;-39
2022/05/12 07:34:27;;;;;;;;;;;22.80;45.70;;;;;;464877;256;1231;-39
2022/05/12 07:36:28;;;;;;;;;;;22.80;45.60;;;;;;464791;255;2221;-39
2022/05/12 07:38:30;;;;;;;;;;;22.80;45.60;;;;;;465504;255;1055;-39
2022/05/12 07:40:31;;;;;;;;;;;22.80;45.60;;;;;;464982;255;1241;-39
2022/05/12 07:42:32;;;;;;;;;;;22.80;45.60;;;;;;464921;255;1260;-39
2022/05/12 07:44:34;;;;;;;;;;;22.80;45.60;;;;;;464843;256;1221;-39
2022/05/12 07:46:35;;;;;;;;;;;22.80;45.50;;;;;;464847;255;1339;-39
2022/05/12 07:48:36;;;;;;;;;;;22.80;45.50;;;;;;464907;255;1378;-39
2022/05/12 07:50:39;;;;;;;;;;;22.80;45.50;;;;;;464782;256;1213;-39
2022/05/12 07:52:39;;;;;;;;;;;22.80;45.50;;;;;;464816;256;2382;-39
2022/05/12 07:54:41;;;;;;;;;;;22.80;45.60;;;;;;464858;255;1321;-39
2022/05/12 07:56:42;;;;;;;;;;;22.80;45.50;;;;;;464683;256;2205;-39
2022/05/12 07:58:43;;;;;;;;;;;22.80;45.60;;;;;;464773;254;1529;-39
2022/05/12 08:00:45;;;;;;;;;;;22.80;45.60;;;;;;464859;254;1250;-39
2022/05/12 08:02:46;;;;;;;;;;;22.80;45.50;;;;;;465219;255;1278;-39
2022/05/12 08:04:47;;;;;;;;;;;22.70;45.60;;;;;;464660;255;1207;-39
2022/05/12 08:06:49;;;;;;;;;;;22.70;45.60;;;;;;464892;255;1251;-39
2022/05/12 08:08:50;;;;;;;;;;;22.80;45.60;;;;;;465136;255;1171;-39
2022/05/12 08:10:51;;;;;;;;;;;22.80;45.60;;;;;;465010;256;1224;-39
2022/05/12 08:12:53;;;;;;;;;;;22.80;45.50;;;;;;465030;255;1272;-39
2022/05/12 08:14:54;;;;;;;;;;;22.80;45.60;;;;;;464927;255;1295;-39
2022/05/12 08:16:56;;;;;;;;;;;22.80;45.50;;;;;;465118;255;2201;-39
2022/05/12 08:18:57;;;;;;;;;;;22.80;45.50;;;;;;465215;256;2236;-39
2022/05/12 08:20:58;;;;;;;;;;;22.70;45.50;;;;;;464880;254;1240;-39
2022/05/12 08:22:59;;;;;;;;;;;22.70;45.50;;;;;;464715;251;1329;-39
2022/05/12 08:25:01;;;;;;;;;;;22.80;45.50;;;;;;464632;255;1371;-39
2022/05/12 08:27:02;;;;;;;;;;;22.80;45.50;;;;;;464619;255;1243;-39
2022/05/12 08:29:03;;;;;;;;;;;22.80;45.60;;;;;;464679;254;1261;-39
2022/05/12 08:31:04;;;;;;;;;;;22.80;45.50;;;;;;464744;255;1536;-41
2022/05/12 08:33:06;;;;;;;;;;;22.80;46.10;;;;;;464526;255;1374;-40
2022/05/12 08:35:07;;;;;;;;;;;22.80;45.60;;;;;;464533;255;2142;-40
2022/05/12 08:37:09;;;;;;;;;;;22.70;45.60;;;;;;465432;255;1332;-40
2022/05/12 08:39:10;;;;;;;;;;;22.80;45.60;;;;;;465034;255;3036;-40
2022/05/12 08:41:12;;;;;;;;;;;22.80;45.60;;;;;;465374;255;1271;-40
2022/05/12 08:43:13;;;;;;;;;;;22.80;45.50;;;;;;465007;255;1352;-40
2022/05/12 08:45:14;;;;;;;;;;;22.80;45.60;;;;;;465213;255;1106;-40
2022/05/12 08:47:15;;;;;;;;;;;22.80;45.60;;;;;;465293;256;1280;-40
2022/05/12 08:49:16;;;;;;;;;;;22.80;45.50;;;;;;465634;255;1062;-39
2022/05/12 08:51:18;;;;;;;;;;;22.80;45.40;;;;;;465668;254;1242;-40
2022/05/12 08:53:19;;;;;;;;;;;22.80;45.50;;;;;;465493;255;1218;-40
2022/05/12 08:55:20;;;;;;;;;;;22.80;45.50;;;;;;464637;256;2198;-40
2022/05/12 08:57:22;;;;;;;;;;;22.80;45.50;;;;;;464898;255;1279;-40
2022/05/12 08:59:23;;;;;;;;;;;22.80;45.50;;;;;;465402;255;1272;-40
2022/05/12 09:01:24;;;;;;;;;;;22.80;45.60;;;;;;464765;254;1326;-40
2022/05/12 09:03:26;;;;;;;;;;;22.80;45.60;;;;;;464883;255;1297;-40
2022/05/12 09:05:27;;;;;;;;;;;22.80;45.60;;;;;;464661;255;1249;-40
2022/05/12 09:07:28;;;;;;;;;;;22.80;45.60;;;;;;464833;256;1222;-40
2022/05/12 09:09:30;;;;;;;;;;;22.80;45.60;;;;;;465060;256;1156;-40
2022/05/12 09:11:31;;;;;;;;;;;22.80;45.70;;;;;;465010;255;1314;-41
2022/05/12 09:13:32;;;;;;;;;;;22.80;45.70;;;;;;465771;254;1055;-40
2022/05/12 09:15:34;;;;;;;;;;;22.80;45.60;;;;;;464737;255;2202;-40
2022/05/12 09:17:35;;;;;;;;;;;22.70;45.70;;;;;;465009;255;1295;-40
2022/05/12 09:19:36;;;;;;;;;;;22.70;45.70;;;;;;465120;255;932;-40
2022/05/12 09:21:38;;;;;;;;;;;22.70;45.70;;;;;;464869;255;1175;-40
2022/05/12 09:23:39;;;;;;;;;;;22.70;45.70;;;;;;465203;255;1401;-40
2022/05/12 09:25:40;;;;;;;;;;;22.80;45.60;;;;;;465756;255;1141;-40
2022/05/12 09:27:44;;;;;;;;;;;22.70;45.60;;;;;;465325;255;1091;-40
2022/05/12 09:29:44;;;;;;;;;;;22.70;45.70;;;;;;465234;256;2126;-40
2022/05/12 09:31:45;;;;;;;;;;;22.70;45.70;;;;;;464714;255;1311;-40
2022/05/12 09:33:46;;;;;;;;;;;22.70;45.70;;;;;;464767;255;1162;-40
2022/05/12 09:35:47;;;;;;;;;;;22.70;45.70;;;;;;464818;255;2197;-40
2022/05/12 09:37:49;;;;;;;;;;;22.80;45.70;;;;;;464866;255;1248;-40
2022/05/12 09:39:50;;;;;;;;;;;22.80;45.70;;;;;;464856;255;1297;-40
2022/05/12 09:41:51;;;;;;;;;;;22.70;45.70;;;;;;464657;256;1295;-40
2022/05/12 09:43:53;;;;;;;;;;;22.70;45.80;;;;;;465261;255;1075;-40
2022/05/12 09:45:54;;;;;;;;;;;22.70;45.80;;;;;;465283;255;1408;-40
2022/05/12 09:47:55;;;;;;;;;;;22.80;45.70;;;;;;465349;255;1263;-40
2022/05/12 09:50:15;;;;;;;;;;;22.80;45.70;;;;;;464520;256;1310;-40
2022/05/12 09:51:58;;;;;;;;;;;22.80;45.60;;;;;;463503;256;2183;-40
2022/05/12 09:53:59;;;;;;;;;;;22.80;45.70;;;;;;464668;255;1176;-40
2022/05/12 09:56:00;;;;;;;;;;;22.80;45.70;;;;;;464820;254;2177;-40
2022/05/12 09:58:02;;;;;;;;;;;22.80;45.60;;;;;;464812;256;1319;-40
2022/05/12 10:00:04;;;;;;;;;;;22.80;45.50;;;;;;464747;254;1249;-40
2022/05/12 10:02:05;;;;;;;;;;;22.80;45.50;;;;;;464476;256;1982;-40
2022/05/12 10:08:45;;;;;;;;;;;22.90;45.40;;;;;;464469;256;1334;-40
2022/05/12 10:10:46;;;;;;;;;;;22.90;45.40;;;;;;464156;255;1247;-40
2022/05/12 10:12:47;;;;;;;;;;;22.90;45.40;;;;;;464752;254;1232;-40
2022/05/12 10:14:49;;;;;;;;;;;22.90;45.40;;;;;;465257;255;1199;-40
2022/05/12 10:16:50;;;;;;;;;;;22.90;45.40;;;;;;464992;255;2202;-40
2022/05/12 10:18:52;;;;;;;;;;;22.90;45.40;;;;;;464913;256;1262;-40
2022/05/12 10:20:53;;;;;;;;;;;22.90;45.40;;;;;;464615;255;1343;-40
2022/05/12 10:22:54;;;;;;;;;;;22.90;45.40;;;;;;464654;256;1279;-40
2022/05/12 10:24:57;;;;;;;;;;;23.00;45.30;;;;;;464663;256;1219;-40
2022/05/12 10:26:57;;;;;;;;;;;23.00;45.30;;;;;;464634;255;1379;-40
2022/05/12 10:29:00;;;;;;;;;;;23.00;45.40;;;;;;464754;256;1338;-40
2022/05/12 10:31:00;;;;;;;;;;;22.90;45.30;;;;;;464691;256;2628;-40
2022/05/12 10:33:02;;;;;;;;;;;23.00;45.40;;;;;;464658;255;1240;-40
2022/05/12 10:35:03;;;;;;;;;;;22.90;45.40;;;;;;464855;255;1231;-40
2022/05/12 10:37:04;;;;;;;;;;;22.90;45.50;;;;;;464869;255;2138;-41
2022/05/12 10:39:05;;;;;;;;;;;22.90;45.60;;;;;;465184;255;1192;-40
2022/05/12 10:41:07;;;;;;;;;;;22.90;45.40;;;;;;464900;255;1198;-40
2022/05/12 10:43:08;;;;;;;;;;;23.00;45.40;;;;;;465532;255;1068;-40
2022/05/12 10:45:09;;;;;;;;;;;23.00;45.40;;;;;;465271;254;1087;-40
2022/05/12 10:47:11;;;;;;;;;;;23.00;45.40;;;;;;465738;255;1067;-40
2022/05/12 10:49:12;;;;;;;;;;;23.00;45.30;;;;;;464832;256;1253;-40
2022/05/12 10:51:13;;;;;;;;;;;23.00;45.30;;;;;;464836;255;1256;-41
2022/05/12 10:53:15;;;;;;;;;;;23.00;45.40;;;;;;465294;255;1565;-40
2022/05/12 10:55:18;;;;;;;;;;;23.00;45.40;;;;;;465359;255;1207;-40
2022/05/12 10:57:17;;;;;;;;;;;23.00;45.30;;;;;;465140;255;2246;-40
2022/05/12 10:59:19;;;;;;;;;;;23.10;45.30;;;;;;465782;254;1072;-40
2022/05/12 11:01:20;;;;;;;;;;;23.00;45.30;;;;;;464950;256;1554;-41
2022/05/12 11:03:21;;;;;;;;;;;23.10;45.20;;;;;;464965;255;1329;-40
2022/05/12 11:05:23;;;;;;;;;;;23.10;45.20;;;;;;464869;254;1329;-40
2022/05/12 11:07:24;;;;;;;;;;;23.10;45.30;;;;;;465071;256;1490;-40
2022/05/12 11:09:25;;;;;;;;;;;23.10;45.20;;;;;;465341;255;1191;-40
2022/05/12 11:11:26;;;;;;;;;;;23.10;45.20;;;;;;464890;256;1312;-40
2022/05/12 11:13:28;;;;;;;;;;;23.10;45.20;;;;;;465185;256;1082;-41
2022/05/12 11:15:29;;;;;;;;;;;23.20;45.10;;;;;;465203;255;1208;-40
2022/05/12 11:17:30;;;;;;;;;;;23.10;45.20;;;;;;465048;256;2220;-40
2022/05/12 11:19:32;;;;;;;;;;;23.10;45.20;;;;;;465359;255;941;-40
2022/05/12 11:21:33;;;;;;;;;;;23.20;45.20;;;;;;465170;255;1290;-40
2022/05/12 11:23:35;;;;;;;;;;;23.20;45.10;;;;;;465566;256;1053;-40
2022/05/12 11:25:36;;;;;;;;;;;23.20;45.10;;;;;;465124;256;1119;-40
2022/05/12 11:27:37;;;;;;;;;;;23.20;45.10;;;;;;465510;256;1061;-40
2022/05/12 11:29:44;;;;;;;;;;;23.20;45.10;;;;;;464865;255;1221;-40
2022/05/12 11:31:46;;;;;;;;;;;23.20;45.10;;;;;;464835;254;1358;-40
2022/05/12 11:33:47;;;;;;;;;;;23.10;45.20;;;;;;465485;255;1168;-40
2022/05/12 11:35:48;;;;;;;;;;;23.20;45.20;;;;;;464713;255;1355;-40
2022/05/12 11:37:50;;;;;;;;;;;23.10;45.30;;;;;;464689;254;2217;-40
2022/05/12 11:39:51;;;;;;;;;;;23.10;45.40;;;;;;465377;255;1164;-40
2022/05/12 11:41:52;;;;;;;;;;;23.10;45.50;;;;;;464790;255;1354;-40
2022/05/12 11:46:13;;;;;;;;;;;23.00;45.50;;;;;;464957;256;1254;-40
2022/05/12 11:48:14;;;;;;;;;;;22.90;45.60;;;;;;464909;255;1121;-40
2022/05/12 11:50:16;;;;;;;;;;;23.00;45.70;;;;;;464929;255;1153;-40
2022/05/12 11:52:17;;;;;;;;;;;23.00;45.70;;;;;;464706;255;1198;-41
2022/05/12 11:54:18;;;;;;;;;;;23.00;45.70;;;;;;464790;255;1217;-40
2022/05/12 11:56:20;;;;;;;;;;;23.00;45.70;;;;;;464826;255;2209;-40
2022/05/12 11:58:21;;;;;;;;;;;23.00;45.70;;;;;;464674;256;1228;-41
2022/05/12 12:00:22;;;;;;;;;;;22.90;45.70;;;;;;464752;255;1279;-40
2022/05/12 12:02:24;;;;;;;;;;;22.90;45.70;;;;;;465631;255;1274;-40
2022/05/12 12:04:25;;;;;;;;;;;23.00;45.70;;;;;;465297;255;1021;-41
2022/05/12 12:06:26;;;;;;;;;;;23.00;45.60;;;;;;465236;255;1218;-40
2022/05/12 12:08:28;;;;;;;;;;;23.00;45.70;;;;;;465631;255;1104;-40
2022/05/12 12:10:29;;;;;;;;;;;23.00;45.60;;;;;;465212;256;1149;-40
2022/05/12 12:12:30;;;;;;;;;;;23.10;45.60;;;;;;465594;255;2047;-40
2022/05/12 12:14:32;;;;;;;;;;;23.10;45.50;;;;;;464977;255;1115;-40
2022/05/12 12:16:33;;;;;;;;;;;23.10;45.40;;;;;;465330;255;2209;-40